Time;durP1;ratioP1;P1;durP2;ratioP2;P2;SDS_P1;SDS_P2;PMS_P1;PMS_P2;Temp;Humidity;BMP_temperature;BMP_pressure;BME280_temperature;BME280_humidity;BME280_pressure;Samples;Min_cycle;Max_cycle;Signal;HPM_P1;HPM_P2
2022/11/29 00:01:39;;;;;;;19.77;12.47;;;8.10;99.90;;;11.50;59.06;97282.97;5003624;28;20352;-54
2022/11/29 00:04:07;;;;;;;18.97;12.37;;;8.10;99.90;;;11.51;58.73;97281.94;5002203;28;20061;-56
2022/11/29 00:06:36;;;;;;;15.87;12.40;;;8.10;99.90;;;11.49;59.08;97279.44;5002373;28;20061;-56
2022/11/29 00:09:11;;;;;;;16.77;11.50;;;8.00;99.90;;;11.48;58.88;97279.66;5001700;28;20239;-56
2022/11/29 00:14:27;;;;;;;19.23;13.40;;;8.00;99.90;;;11.42;59.51;97282.00;5002971;28;20046;-52
2022/11/29 00:17:00;;;;;;;19.90;13.40;;;8.00;99.90;;;11.44;59.07;97276.50;5003338;28;20240;-56
2022/11/29 00:19:32;;;;;;;;;;;8.00;99.90;;;11.46;58.74;97285.16;5003937;28;20046;-57
2022/11/29 00:22:00;;;;;;;19.73;12.43;;;8.00;99.90;;;11.46;58.79;97279.81;5003379;28;19918;-54
2022/11/29 00:24:31;;;;;;;22.83;14.50;;;8.00;99.90;;;11.41;59.09;97282.16;5001838;28;20248;-54
2022/11/29 00:26:59;;;;;;;26.33;15.73;;;7.90;99.90;;;11.40;58.93;97284.00;5002123;28;20177;-56
2022/11/29 00:29:28;;;;;;;24.07;15.93;;;8.00;99.90;;;11.40;59.46;97277.84;5003210;28;20046;-56
2022/11/29 00:31:56;;;;;;;26.37;15.10;;;8.00;99.90;;;11.39;59.11;97282.34;5001873;28;20050;-56
2022/11/29 00:34:24;;;;;;;22.00;14.67;;;8.00;99.90;;;11.39;59.40;97279.66;5001706;28;20052;-54
2022/11/29 00:36:52;;;;;;;15.77;11.37;;;8.00;99.90;;;11.38;59.46;97280.69;5003039;28;20046;-56
2022/11/29 00:39:20;;;;;;;14.10;10.97;;;8.00;99.90;;;11.34;59.13;97271.38;5003144;28;20110;-53
2022/11/29 00:41:48;;;;;;;15.17;11.57;;;8.00;99.90;;;11.37;59.57;97276.34;5002747;28;20046;-56
2022/11/29 00:44:16;;;;;;;17.50;12.10;;;8.00;99.90;;;11.37;59.17;97275.53;5002003;28;20062;-53
2022/11/29 00:46:47;;;;;;;14.47;10.40;;;8.00;99.90;;;11.40;59.11;97285.84;5002945;28;20050;-56
2022/11/29 00:49:16;;;;;;;15.17;11.13;;;8.00;99.90;;;11.43;59.51;97277.50;5003113;28;20054;-56
2022/11/29 00:51:44;;;;;;;13.77;9.97;;;8.00;99.90;;;11.43;59.09;97280.16;5002545;28;20056;-56
2022/11/29 00:54:12;;;;;;;14.03;9.73;;;8.00;99.90;;;11.41;59.02;97280.31;5002746;28;20056;-56
2022/11/29 00:56:40;;;;;;;13.47;8.87;;;8.00;99.90;;;11.40;59.23;97281.34;5002487;28;20046;-56
2022/11/29 00:59:08;;;;;;;13.73;9.70;;;8.00;99.90;;;11.41;59.32;97283.00;5002794;28;20072;-55
2022/11/29 01:01:36;;;;;;;12.73;8.53;;;8.00;99.90;;;11.43;59.24;97286.31;5002846;28;20076;-54
2022/11/29 01:04:04;;;;;;;13.80;9.67;;;8.00;99.90;;;11.45;59.41;97286.13;5002177;28;20038;-55
2022/11/29 01:06:32;;;;;;;12.20;8.70;;;8.00;99.90;;;11.45;59.58;97286.13;5002969;28;20041;-57
2022/11/29 01:08:59;;;;;;;13.10;8.57;;;8.00;99.90;;;11.43;59.19;97285.47;5002519;28;20046;-56
2022/11/29 01:11:27;;;;;;;13.97;8.80;;;8.00;99.90;;;11.38;59.78;97290.50;5002532;28;20048;-55
2022/11/29 01:14:00;;;;;;;11.40;9.23;;;8.00;99.90;;;11.39;59.42;97295.66;4999831;28;20050;-55
2022/11/29 01:16:29;;;;;;;12.63;8.70;;;8.00;99.90;;;11.40;59.61;97293.84;5002712;28;20050;-55
2022/11/29 01:18:57;;;;;;;9.50;7.43;;;8.00;99.90;;;11.39;59.94;97293.00;5001033;28;20050;-55
2022/11/29 01:21:25;;;;;;;12.10;8.37;;;8.00;99.90;;;11.36;60.00;97293.38;5006637;28;20240;-56
2022/11/29 01:23:53;;;;;;;11.80;6.70;;;7.90;99.90;;;11.40;59.88;97291.19;5008572;28;20046;-56
2022/11/29 01:26:25;;;;;;;9.43;5.60;;;8.00;99.90;;;11.39;59.89;97290.34;5007671;28;20056;-56
2022/11/29 01:28:55;;;;;;;6.63;4.03;;;8.10;99.90;;;10.91;61.48;97300.19;5007804;28;20046;-56
2022/11/29 01:31:31;;;;;;;4.03;2.90;;;7.90;99.90;;;10.88;61.73;97291.75;5008048;28;20052;-56
2022/11/29 01:34:01;;;;;;;4.00;2.93;;;7.70;99.90;;;11.00;61.01;97290.34;5007383;28;20333;-55
2022/11/29 01:36:30;;;;;;;4.07;2.57;;;7.70;99.90;;;10.93;61.45;97292.03;5009521;28;20046;-54
2022/11/29 01:39:00;;;;;;;2.83;2.10;;;7.70;99.90;;;10.71;62.71;97297.09;5007665;28;20042;-60
2022/11/29 01:41:31;;;;;;;3.27;2.40;;;7.60;99.90;;;10.74;62.45;97295.91;5008941;28;20046;-60
2022/11/29 01:44:13;;;;;;;3.37;2.10;;;7.60;99.90;;;10.64;62.68;97296.97;5007255;28;20042;-60
2022/11/29 01:46:44;;;;;;;3.70;2.40;;;7.50;99.90;;;10.79;62.44;97301.56;5009020;28;20270;-60
2022/11/29 01:49:28;;;;;;;3.63;2.43;;;7.50;99.90;;;10.79;62.12;97293.59;5009057;28;20065;-60
2022/11/29 01:52:05;;;;;;;4.40;2.83;;;7.50;99.90;;;10.72;62.81;97296.13;5007852;28;20042;-60
2022/11/29 01:54:39;;;;;;;4.33;2.77;;;7.60;99.90;;;10.80;62.02;97295.25;5007169;28;20046;-60
2022/11/29 01:57:08;;;;;;;3.87;2.60;;;7.50;99.90;;;10.91;62.11;97292.22;5007724;28;20054;-60
2022/11/29 01:59:42;;;;;;;4.77;3.10;;;7.60;99.90;;;10.94;62.08;97297.19;5007530;28;20038;-60
2022/11/29 02:02:25;;;;;;;4.67;2.97;;;7.70;99.90;;;10.87;62.20;97298.88;5007793;28;20076;-60
2022/11/29 02:04:59;;;;;;;4.87;3.03;;;7.60;99.90;;;10.94;61.86;97297.19;5006887;28;20054;-60
2022/11/29 02:07:26;;;;;;;3.77;2.73;;;7.60;99.90;;;10.80;62.63;97297.94;5007745;28;20053;-60
2022/11/29 02:09:54;;;;;;;4.50;3.30;;;7.50;99.90;;;10.79;62.35;97294.41;5007556;28;20240;-60
2022/11/29 02:12:39;;;;;;;4.67;3.20;;;7.50;99.90;;;10.84;62.39;97294.75;5008631;28;20054;-60
2022/11/29 02:15:38;;;;;;;4.53;3.23;;;7.60;99.90;;;10.87;62.16;97293.56;5006893;28;20046;-60
2022/11/29 02:18:24;;;;;;;4.23;3.00;;;7.60;99.90;;;10.89;62.66;97296.06;5008664;28;20046;-60
2022/11/29 02:21:32;;;;;;;3.97;3.27;;;7.60;99.90;;;10.76;62.89;97299.25;5007465;28;20153;-60
2022/11/29 02:24:42;;;;;;;3.77;2.40;;;7.60;99.90;;;10.70;62.90;97299.94;5007191;28;20054;-60
2022/11/29 02:27:51;;;;;;;3.80;2.17;;;7.50;99.90;;;10.51;63.25;97299.31;5007304;28;20081;-60
2022/11/29 02:30:40;;;;;;;3.70;2.37;;;7.50;99.90;;;10.73;62.66;97299.59;5023770;28;20240;-60
2022/11/29 02:33:49;;;;;;;2.23;1.60;;;7.60;99.90;;;10.68;62.97;97293.94;4984647;28;20260;-60
2022/11/29 02:37:02;;;;;;;2.20;1.73;;;7.60;99.90;;;10.57;63.43;97298.63;5005387;28;20046;-60
2022/11/29 02:39:58;;;;;;;1.87;1.67;;;7.50;99.90;;;10.60;62.96;97293.00;5004607;28;20053;-60
2022/11/29 02:42:53;;;;;;;2.33;1.77;;;7.50;99.90;;;10.62;62.75;97298.13;5004913;28;20047;-60
2022/11/29 02:46:03;;;;;;;2.40;1.83;;;7.50;99.90;;;10.63;62.87;97302.44;5004830;28;20054;-60
2022/11/29 02:48:46;;;;;;;2.30;1.50;;;7.50;99.90;;;10.64;62.89;97302.28;5004898;28;20046;-60
2022/11/29 02:51:26;;;;;;;3.27;1.90;;;7.50;99.90;;;10.58;63.46;97305.59;5005638;28;20064;-60
2022/11/29 02:54:24;;;;;;;3.03;2.03;;;7.50;99.90;;;10.46;63.36;97306.16;5003954;28;20040;-60
2022/11/29 02:57:00;;;;;;;2.67;2.17;;;7.50;99.90;;;10.48;63.36;97296.97;5003925;28;20046;-60
2022/11/29 03:00:02;;;;;;;3.50;2.30;;;7.40;99.90;;;10.62;63.13;97298.13;5005140;28;20068;-60
2022/11/29 03:03:10;;;;;;;3.47;2.17;;;7.50;99.90;;;10.74;63.04;97306.56;5004553;28;20053;-60
2022/11/29 03:05:52;;;;;;;2.83;2.10;;;7.50;99.90;;;10.71;62.73;97304.28;5003361;28;20044;-60
2022/11/29 03:09:06;;;;;;;3.93;2.70;;;7.50;99.90;;;10.50;63.41;97313.63;5004684;28;20042;-60
2022/11/29 03:12:01;;;;;;;3.73;2.43;;;7.40;99.90;;;10.52;63.50;97308.13;5005309;28;20057;-60
2022/11/29 03:14:58;;;;;;;3.70;2.22;;;7.40;99.90;;;10.64;63.11;97318.25;5004027;28;20045;-60
2022/11/29 03:18:12;;;;;;;3.80;2.23;;;7.50;99.90;;;10.70;62.72;97314.09;5004562;28;20048;-60
2022/11/29 03:21:16;;;;;;;6.27;2.57;;;7.50;99.90;;;10.68;62.97;97316.06;5004615;28;20348;-60
2022/11/29 03:23:55;;;;;;;2.78;2.30;;;7.50;99.90;;;10.77;62.85;97323.03;5003842;28;20070;-60
2022/11/29 03:26:34;;;;;;;3.53;2.63;;;7.50;99.90;;;10.88;62.60;97316.53;5002318;28;20053;-60
2022/11/29 03:29:19;;;;;;;5.33;2.93;;;7.60;99.90;;;10.83;62.59;97313.53;5003225;28;20046;-60
2022/11/29 03:32:42;;;;;;;;;;;7.60;99.90;;;10.65;62.90;97319.09;5003890;28;20052;-60
2022/11/29 03:35:26;;;;;;;3.97;2.27;;;7.50;99.90;;;10.56;62.88;97322.75;4962785;29;20213;-60
2022/11/29 03:38:06;;;;;;;4.30;2.67;;;7.50;99.90;;;10.55;63.05;97318.44;4948514;29;20059;-60
2022/11/29 03:40:51;;;;;;;4.27;3.17;;;7.40;99.90;;;10.61;62.91;97328.41;4991316;28;20062;-60
2022/11/29 03:44:23;;;;;;;4.50;2.90;;;7.50;99.90;;;10.68;63.07;97323.22;5002970;28;20265;-60
2022/11/29 03:47:06;;;;;;;4.27;2.83;;;7.50;99.90;;;10.79;62.86;97333.53;5003944;28;20058;-60
2022/11/29 03:49:44;;;;;;;4.82;3.30;;;7.50;99.90;;;10.68;63.09;97323.22;5003304;28;20227;-60
2022/11/29 03:52:23;;;;;;;5.23;3.60;;;7.50;99.90;;;10.77;62.83;97327.53;5004864;28;20064;-60
2022/11/29 03:55:09;;;;;;;5.30;3.30;;;7.40;99.90;;;10.80;62.56;97336.03;5002259;28;20044;-60
2022/11/29 03:57:39;;;;;;;6.30;3.30;;;7.50;99.90;;;10.89;62.51;97328.84;5019052;28;20048;-60
2022/11/29 04:00:11;;;;;;;6.03;3.93;;;7.60;99.90;;;10.86;62.69;97339.84;5002005;28;20050;-60
2022/11/29 04:03:23;;;;;;;4.77;3.50;;;7.60;99.90;;;10.70;63.03;97331.88;5003292;28;20050;-60
2022/11/29 04:06:15;;;;;;;8.33;3.50;;;7.60;99.90;;;10.70;63.03;97339.88;4993054;28;20084;-60
2022/11/29 04:09:30;;;;;;;5.23;3.57;;;7.50;99.90;;;10.53;63.34;97331.91;5003866;28;20058;-60
2022/11/29 04:12:22;;;;;;;6.90;3.95;;;7.50;99.90;;;10.68;62.63;97336.53;5003285;28;20042;-60
2022/11/29 04:15:39;;;;;;;9.03;4.63;;;7.40;99.90;;;10.54;63.45;97336.22;5001054;28;20061;-60
2022/11/29 04:18:26;;;;;;;4.90;3.67;;;7.40;99.90;;;10.68;62.97;97340.03;5003553;28;20057;-60
2022/11/29 04:21:23;;;;;;;6.70;4.57;;;7.40;99.90;;;10.67;63.20;97346.38;5003346;28;20351;-60
2022/11/29 04:24:43;;;;;;;5.60;4.10;;;7.40;99.90;;;10.58;63.11;97347.38;5002631;28;20065;-60
2022/11/29 04:27:51;;;;;;;5.97;3.83;;;7.40;99.90;;;10.68;63.27;97342.69;5002514;28;20080;-60
2022/11/29 04:30:22;;;;;;;7.30;4.60;;;7.40;99.90;;;10.64;63.29;97350.22;5003329;28;20052;-59
2022/11/29 04:32:49;;;;;;;7.70;4.47;;;7.40;99.90;;;10.36;64.32;97356.88;5002273;28;20061;-60
2022/11/29 04:36:25;;;;;;;7.37;4.70;;;7.30;99.90;;;10.47;63.48;97353.03;5002583;28;20105;-60
2022/11/29 04:39:12;;;;;;;8.17;4.77;;;7.30;99.90;;;10.58;63.59;97364.16;4987021;28;20050;-60
2022/11/29 04:41:50;;;;;;;8.80;4.83;;;7.30;99.90;;;10.40;64.04;97364.34;5001803;28;20046;-60
2022/11/29 04:44:35;;;;;;;7.03;4.50;;;7.30;99.90;;;10.64;63.18;97363.53;5002634;28;20048;-60
2022/11/29 04:47:09;;;;;;;7.67;5.00;;;7.40;99.90;;;10.59;63.53;97359.69;5001637;28;20060;-60
2022/11/29 04:50:36;;;;;;;7.97;5.45;;;7.40;99.90;;;10.68;63.34;97361.31;5003287;28;20061;-60
2022/11/29 04:53:43;;;;;;;7.83;6.53;;;7.50;99.90;;;10.76;63.21;97366.66;4984483;28;20241;-60
2022/11/29 04:56:44;;;;;;;5.90;4.50;;;7.50;99.90;;;10.75;62.61;97372.97;5001126;28;20050;-60
2022/11/29 04:59:23;;;;;;;5.77;3.33;;;7.50;99.90;;;10.47;63.27;97377.00;5002252;28;20130;-60
2022/11/29 05:02:29;;;;;;;5.20;3.97;;;7.40;99.90;;;10.57;63.30;97375.84;5002726;28;20359;-60
2022/11/29 05:05:28;;;;;;;4.93;3.20;;;7.40;99.90;;;10.62;63.42;97376.16;5002082;28;20236;-60
2022/11/29 05:08:33;;;;;;;5.27;3.90;;;7.40;99.90;;;10.68;63.25;97376.47;5002871;28;20054;-60
2022/11/29 05:11:16;;;;;;;5.00;3.30;;;7.50;99.90;;;10.75;63.15;97386.28;5002645;28;20341;-60
2022/11/29 05:13:57;;;;;;;6.53;3.63;;;7.50;99.90;;;10.76;62.84;97382.63;5001784;28;20118;-60
2022/11/29 05:17:08;;;;;;;5.50;3.50;;;7.50;99.90;;;10.63;62.88;97385.81;5001588;28;20042;-60
2022/11/29 05:20:06;;;;;;;5.23;3.20;;;7.40;99.90;;;10.56;63.11;97384.81;4981939;28;20054;-60
2022/11/29 05:23:11;;;;;;;5.30;3.87;;;7.40;99.90;;;10.52;63.35;97383.47;5002656;28;20050;-60
2022/11/29 05:26:13;;;;;;;;;;;7.30;99.90;;;10.21;64.13;97391.25;4986503;28;20064;-60
2022/11/29 05:28:44;;;;;;;6.77;4.67;;;7.20;99.90;;;10.52;63.48;97396.78;5002363;28;19917;-60
2022/11/29 05:31:47;;;;;;;10.43;6.37;;;7.20;99.90;;;10.44;63.76;97392.28;5002399;28;20081;-60
2022/11/29 05:34:33;;;;;;;10.37;7.30;;;7.30;99.90;;;10.44;63.66;97394.13;5001795;28;20054;-60
2022/11/29 05:37:36;;;;;;;8.47;5.97;;;7.30;99.90;;;10.42;63.93;97388.97;5002371;28;20043;-60
2022/11/29 05:40:19;;;;;;;8.67;6.23;;;7.30;99.90;;;10.54;63.73;97399.28;5001318;28;20214;-60
2022/11/29 05:43:20;;;;;;;6.70;5.20;;;7.30;99.90;;;10.46;63.76;97399.28;5002808;28;20239;-60
2022/11/29 05:46:28;;;;;;;6.67;5.17;;;7.30;99.90;;;10.43;63.85;97403.94;5001760;28;20053;-60
2022/11/29 05:49:17;;;;;;;8.27;5.97;;;7.30;99.90;;;10.27;64.42;97395.91;5001458;28;20042;-60
2022/11/29 05:52:10;;;;;;;7.53;5.43;;;7.20;99.90;;;10.18;64.88;97403.06;5002318;28;20050;-60
2022/11/29 05:55:15;;;;;;;8.37;6.40;;;7.20;99.90;;;10.37;63.85;97403.78;5001622;28;20232;-60
2022/11/29 05:58:23;;;;;;;8.70;5.70;;;7.20;99.90;;;10.45;63.64;97411.78;5002312;28;20057;-60
2022/11/29 06:01:20;;;;;;;9.20;6.13;;;7.30;99.90;;;10.41;63.86;97408.63;4994227;28;20062;-60
2022/11/29 06:04:11;;;;;;;9.93;5.70;;;7.30;99.90;;;10.34;64.37;97406.78;5000832;28;20072;-61
2022/11/29 06:07:13;;;;;;;9.93;7.33;;;7.30;99.90;;;10.49;63.47;97417.56;5000732;28;20052;-60
2022/11/29 06:09:54;;;;;;;8.97;6.27;;;7.30;99.90;;;10.59;63.61;97416.44;5005073;28;20065;-60
2022/11/29 06:12:34;;;;;;;11.10;6.37;;;7.30;99.90;;;10.55;63.44;97419.59;5004783;28;20056;-60
2022/11/29 06:15:23;;;;;;;10.93;6.43;;;7.30;99.90;;;10.63;63.13;97419.59;5004290;28;20054;-60
2022/11/29 06:18:02;;;;;;;11.53;6.90;;;7.40;99.90;;;10.59;63.38;97421.75;5005665;28;20046;-60
2022/11/29 06:20:59;;;;;;;8.23;6.20;;;7.30;99.90;;;10.62;63.64;97421.44;5005782;28;20038;-60
2022/11/29 06:23:33;;;;;;;9.43;5.93;;;7.40;99.90;;;10.72;62.93;97425.72;5005345;28;20046;-60
2022/11/29 06:26:28;;;;;;;8.50;5.97;;;7.40;99.90;;;10.56;63.28;97430.06;5005024;28;20056;-60
2022/11/29 06:29:32;;;;;;;9.80;5.85;;;7.30;99.90;;;10.26;64.53;97434.19;5005604;28;20240;-60
2022/11/29 06:32:09;;;;;;;7.55;5.60;;;7.30;99.90;;;10.53;63.42;97433.06;5005424;28;20046;-61
2022/11/29 06:34:58;;;;;;;9.03;6.37;;;7.30;99.90;;;10.64;63.23;97434.53;5004866;28;20042;-61
2022/11/29 06:37:43;;;;;;;7.60;5.77;;;7.40;99.90;;;10.42;63.66;97436.03;5004176;28;20049;-60
2022/11/29 06:40:14;;;;;;;7.73;5.43;;;7.30;99.90;;;10.54;63.60;97440.03;5004407;28;20042;-61
2022/11/29 06:42:43;;;;;;;7.93;5.40;;;7.30;99.90;;;10.61;63.23;97446.38;5003910;28;20359;-60
2022/11/29 06:45:13;;;;;;;8.23;5.80;;;7.40;99.90;;;10.52;63.74;97442.03;5003231;28;20050;-60
2022/11/29 06:47:43;;;;;;;7.20;5.43;;;7.30;99.90;;;10.48;63.62;97443.38;5004006;28;20056;-60
2022/11/29 06:50:51;;;;;;;8.07;6.10;;;7.30;99.90;;;10.20;64.26;97451.63;5005214;28;20050;-60
2022/11/29 06:53:22;;;;;;;8.20;6.47;;;7.30;99.90;;;10.47;63.65;97454.16;4984579;28;20058;-61
2022/11/29 06:56:20;;;;;;;9.40;6.63;;;7.30;99.90;;;10.61;63.33;97456.19;5004536;28;20048;-60
2022/11/29 06:59:27;;;;;;;8.53;5.97;;;7.30;99.90;;;10.60;63.17;97457.19;5004234;28;20050;-61
2022/11/29 07:02:34;;;;;;;11.00;6.53;;;7.30;99.90;;;10.39;63.64;97453.19;5004044;28;20052;-60
2022/11/29 07:05:35;;;;;;;8.80;5.87;;;7.30;99.90;;;10.56;63.65;97456.66;5003897;28;20047;-61
2022/11/29 07:08:22;;;;;;;10.80;6.77;;;7.30;99.90;;;10.60;63.57;97458.03;4972421;28;20117;-61
2022/11/29 07:10:54;;;;;;;14.70;8.20;;;7.30;99.90;;;10.69;63.34;97468.69;5003888;28;20280;-61
2022/11/29 07:13:22;;;;;;;11.77;7.87;;;7.30;99.90;;;10.70;63.05;97468.53;5004819;28;20038;-61
2022/11/29 07:16:23;;;;;;;11.07;6.83;;;7.30;99.90;;;10.57;63.30;97479.66;5002354;28;20053;-62
2022/11/29 07:19:42;;;;;;;9.17;6.93;;;7.30;99.90;;;10.63;63.46;97473.66;5004238;28;20050;-62
2022/11/29 07:22:36;;;;;;;12.93;8.63;;;7.30;99.90;;;10.69;63.48;97476.66;5004521;28;20046;-61
2022/11/29 07:25:19;;;;;;;15.18;9.60;;;7.40;99.90;;;10.82;63.29;97477.00;5002988;28;20042;-61
2022/11/29 07:28:37;;;;;;;11.63;7.07;;;7.50;99.90;;;10.65;63.42;97481.47;5004609;28;20340;-61
2022/11/29 07:31:18;;;;;;;9.97;7.17;;;7.40;99.90;;;10.41;63.88;97491.09;4998268;28;20054;-61
2022/11/29 07:34:18;;;;;;;9.33;6.53;;;7.20;99.90;;;10.46;63.64;97479.97;5004055;28;20052;-61
2022/11/29 07:37:31;;;;;;;10.83;7.90;;;7.20;99.90;;;10.53;63.49;97485.47;5003170;28;20057;-61
2022/11/29 07:40:18;;;;;;;13.90;8.20;;;7.30;99.90;;;10.57;63.59;97486.81;4998910;28;20072;-61
2022/11/29 07:43:13;;;;;;;9.07;7.20;;;7.30;99.90;;;10.27;64.28;97488.22;5003322;28;20367;-61
2022/11/29 07:45:41;;;;;;;10.50;7.03;;;7.10;99.90;;;10.48;63.85;97487.78;5003585;28;20061;-61
2022/11/29 07:48:11;;;;;;;12.47;7.10;;;7.20;99.90;;;10.56;63.55;97491.28;5003126;28;20217;-61
2022/11/29 07:50:42;;;;;;;10.45;6.25;;;7.30;99.90;;;10.57;63.47;97492.97;5003141;28;20046;-61
2022/11/29 07:53:18;;;;;;;8.83;5.73;;;7.30;99.90;;;10.73;63.25;97499.28;5003185;28;20058;-61
2022/11/29 07:55:48;;;;;;;8.70;6.40;;;7.40;99.90;;;10.79;63.19;97499.44;5002051;28;20248;-62
2022/11/29 07:58:17;;;;;;;10.23;6.30;;;7.50;99.90;;;10.81;63.02;97493.97;5002763;28;20042;-61
2022/11/29 08:00:45;;;;;;;10.77;6.60;;;7.40;99.90;;;10.83;63.21;97500.78;5003548;28;20052;-56
2022/11/29 08:03:14;;;;;;;10.13;6.77;;;7.50;99.90;;;10.80;62.73;97494.97;5003261;28;20363;-57
2022/11/29 08:05:47;;;;;;;11.73;6.60;;;7.40;99.90;;;10.78;62.96;97497.81;4985933;28;20379;-57
2022/11/29 08:08:16;;;;;;;10.60;5.80;;;7.40;99.90;;;10.70;63.48;97496.94;5003338;28;20077;-57
2022/11/29 08:10:44;;;;;;;8.80;6.47;;;7.40;99.90;;;10.65;63.38;97505.44;5002553;28;20050;-57
2022/11/29 08:13:12;;;;;;;9.43;6.40;;;7.40;99.90;;;10.73;63.43;97504.63;5001924;28;20060;-57
2022/11/29 08:15:45;;;;;;;9.70;6.50;;;7.40;99.90;;;10.81;63.02;97504.63;5003314;28;20054;-57
2022/11/29 08:18:14;;;;;;;12.35;7.55;;;7.40;99.90;;;10.79;63.25;97506.63;5002129;28;20049;-57
2022/11/29 08:20:42;;;;;;;10.20;6.97;;;7.40;99.90;;;10.59;63.76;97506.94;5002555;28;20052;-52
2022/11/29 08:23:12;;;;;;;11.07;6.50;;;7.40;99.90;;;10.74;63.29;97511.59;5003203;28;20363;-54
2022/11/29 08:25:40;;;;;;;12.20;6.47;;;7.40;99.90;;;10.73;63.52;97518.75;5034675;28;20057;-59
2022/11/29 08:28:08;;;;;;;10.90;7.70;;;7.40;99.90;;;10.78;63.45;97515.63;5002020;28;20371;-59
2022/11/29 08:30:36;;;;;;;10.23;6.27;;;7.40;99.90;;;10.84;63.33;97521.09;5002269;28;20050;-58
2022/11/29 08:33:04;;;;;;;14.67;6.43;;;7.50;99.90;;;10.63;63.77;97521.56;5002322;28;20050;-61
2022/11/29 08:35:34;;;;;;;9.87;7.40;;;7.40;99.90;;;10.75;63.56;97521.25;5001545;28;20047;-58
2022/11/29 08:38:03;;;;;;;9.77;7.07;;;7.50;99.90;;;10.72;63.60;97527.75;5017675;28;20050;-58
2022/11/29 08:40:31;;;;;;;8.40;6.30;;;7.50;99.90;;;10.64;64.01;97522.41;5001865;28;20218;-56
2022/11/29 08:42:59;;;;;;;13.37;11.37;;;7.40;99.90;;;10.74;63.55;97527.56;5001901;28;20046;-56
2022/11/29 08:45:27;;;;;;;11.17;6.77;;;7.50;99.90;;;10.81;63.70;97526.75;5002466;28;20046;-58
2022/11/29 08:47:55;;;;;;;11.43;7.20;;;7.50;99.90;;;10.81;63.08;97532.06;5003063;28;20346;-57
2022/11/29 08:50:23;;;;;;;12.53;6.97;;;7.50;99.90;;;10.82;63.51;97528.41;5002815;28;20048;-58
2022/11/29 08:55:41;;;;;;;18.53;7.87;;;7.50;99.90;;;10.79;63.55;97530.59;5001412;28;20042;-55
2022/11/29 08:58:13;;;;;;;22.53;8.47;;;7.40;99.90;;;10.70;63.87;97536.88;5018401;28;20205;-56
2022/11/29 09:00:45;;;;;;;17.37;8.40;;;7.40;99.90;;;10.78;63.64;97534.25;4985889;28;20050;-56
2022/11/29 09:06:12;;;;;;;25.27;8.43;;;7.50;99.90;;;10.83;63.34;97538.06;5002099;28;20050;-58
2022/11/29 09:08:44;;;;;;;23.80;8.50;;;7.50;99.90;;;10.63;63.97;97547.38;5003195;28;20068;-57
2022/11/29 09:11:21;;;;;;;20.63;9.20;;;7.40;99.90;;;10.62;64.40;97545.69;5001539;28;20061;-59
2022/11/29 09:13:53;;;;;;;44.00;12.37;;;7.40;99.90;;;10.64;63.94;97549.03;5002393;28;20084;-56
2022/11/29 09:16:26;;;;;;;42.67;12.00;;;7.40;99.90;;;10.67;64.51;97548.72;5002540;28;20050;-58
2022/11/29 09:18:56;;;;;;;65.03;13.97;;;7.40;99.90;;;10.41;64.77;97554.97;5001348;28;20056;-58
2022/11/29 09:21:26;;;;;;;38.30;12.03;;;7.30;99.90;;;10.52;64.79;97553.81;5001710;28;20054;-58
2022/11/29 09:23:58;;;;;;;65.13;11.87;;;7.30;99.90;;;10.54;64.40;97561.66;5002095;28;20042;-58
2022/11/29 09:26:29;;;;;;;46.20;11.07;;;7.30;99.90;;;10.40;64.80;97558.63;5000743;28;20052;-58
2022/11/29 09:29:00;;;;;;;51.93;12.00;;;7.30;99.90;;;10.28;65.08;97567.88;5000793;28;20057;-58
2022/11/29 09:31:30;;;;;;;85.43;16.70;;;7.20;99.90;;;10.28;65.21;97559.06;5001810;28;20345;-58
2022/11/29 09:33:58;;;;;;;72.90;15.10;;;7.20;99.90;;;10.29;65.70;97560.72;5001250;28;20054;-58
2022/11/29 09:36:28;;;;;;;32.60;11.87;;;7.20;99.90;;;10.48;64.79;97568.47;5002464;28;20057;-58
2022/11/29 09:38:57;;;;;;;48.87;12.03;;;7.30;99.90;;;10.58;64.76;97576.31;5001401;28;20050;-59
2022/11/29 09:41:53;;;;;;;56.17;12.93;;;7.40;99.90;;;10.66;64.87;97568.31;5002964;28;20054;-58
2022/11/29 09:44:58;;;;;;;57.87;13.87;;;7.50;99.90;;;10.47;65.23;97569.47;5005979;28;20069;-58
2022/11/29 09:47:40;;;;;;;66.07;13.13;;;7.40;99.90;;;10.70;64.75;97576.81;5006527;28;20054;-58
2022/11/29 09:50:34;;;;;;;97.07;16.83;;;7.40;99.90;;;10.68;64.82;97570.84;5005843;28;20058;-59
2022/11/29 09:53:29;;;;;;;94.97;15.33;;;7.50;99.90;;;10.07;66.73;97573.63;5006335;28;20050;-57
2022/11/29 09:56:15;;;;;;;115.27;14.10;;;7.40;99.90;;;10.34;65.87;97577.09;5005218;28;20068;-58
2022/11/29 09:58:53;;;;;;;96.37;15.47;;;7.30;99.90;;;10.38;65.68;97581.09;5006026;28;20050;-57
2022/11/29 10:01:39;;;;;;;83.40;13.63;;;7.30;99.90;;;10.09;66.78;97579.59;5003515;28;20060;-56
2022/11/29 10:04:18;;;;;;;131.67;21.83;;;7.20;99.90;;;10.04;67.08;97585.41;5005026;28;20054;-58
2022/11/29 10:07:13;;;;;;;60.97;10.00;;;7.20;99.90;;;10.03;66.79;97589.06;5004639;28;20046;-57
2022/11/29 10:09:55;;;;;;;124.43;17.80;;;7.20;99.90;;;10.27;66.12;97584.81;5005100;28;20072;-56
2022/11/29 10:12:45;;;;;;;44.17;10.57;;;7.20;99.90;;;10.49;65.89;97591.44;5004709;28;20050;-57
2022/11/29 10:15:28;;;;;;;51.83;11.80;;;7.40;99.90;;;10.60;65.23;97584.97;5005469;28;20053;-58
2022/11/29 10:18:31;;;;;;;106.83;14.87;;;7.50;99.90;;;10.70;65.29;97588.31;5002579;28;20052;-54
2022/11/29 10:21:11;;;;;;;68.50;13.43;;;7.50;99.90;;;10.77;65.30;97580.50;5004898;28;20042;-57
2022/11/29 10:23:52;;;;;;;62.43;11.83;;;7.60;99.90;;;10.82;64.91;97583.53;5004295;28;20046;-58
2022/11/29 10:26:21;;;;;;;57.63;11.77;;;7.60;99.90;;;10.86;64.67;97584.00;5004679;28;20054;-57
2022/11/29 10:28:50;;;;;;;56.97;10.10;;;7.60;99.90;;;10.57;65.67;97580.81;5004451;28;20052;-58
2022/11/29 10:31:25;;;;;;;35.27;10.17;;;7.50;99.90;;;10.69;65.25;97586.66;4987182;28;20061;-55
2022/11/29 10:33:58;;;;;;;54.27;12.43;;;7.50;99.90;;;10.86;64.77;97586.66;5005723;28;20054;-54
2022/11/29 10:36:49;;;;;;;22.23;9.90;;;7.60;99.90;;;10.69;65.17;97585.81;5005266;28;20054;-58
2022/11/29 10:39:35;;;;;;;23.97;11.43;;;7.60;99.90;;;10.80;64.75;97586.34;5004253;28;20046;-57
2022/11/29 10:42:47;;;;;;;22.70;10.73;;;7.60;99.90;;;10.83;64.89;97580.66;5004535;28;20053;-57
2022/11/29 10:45:00;;;;;;;26.10;11.97;;;7.60;99.90;;;10.96;64.88;97579.38;5003845;28;20049;-60
2022/11/29 10:47:27;;;;;;;17.90;10.43;;;7.60;99.90;;;10.89;64.47;97584.50;5004147;28;20054;-55
2022/11/29 10:49:57;;;;;;;21.73;11.43;;;7.60;99.90;;;10.97;64.51;97583.69;5003863;28;20054;-57
2022/11/29 10:52:25;;;;;;;21.10;11.70;;;7.70;99.90;;;10.96;64.67;97580.19;5004276;28;20371;-56
2022/11/29 10:54:58;;;;;;;23.73;12.40;;;7.70;99.90;;;10.97;64.12;97581.03;5003005;28;20237;-57
2022/11/29 10:57:26;;;;;;;19.45;10.00;;;7.70;99.90;;;10.99;64.35;97581.69;5004036;28;20046;-57
2022/11/29 11:00:05;;;;;;;17.67;11.43;;;7.70;99.90;;;10.98;64.41;97582.69;5004747;28;20046;-57
2022/11/29 11:02:34;;;;;;;21.37;11.03;;;7.70;99.90;;;10.88;64.55;97582.03;5003918;28;20073;-54
2022/11/29 11:05:11;;;;;;;15.47;10.23;;;7.70;99.90;;;11.02;64.25;97582.19;5004165;28;20065;-58
2022/11/29 11:07:40;;;;;;;16.53;9.80;;;7.80;99.90;;;10.89;64.66;97581.03;5004916;28;20046;-56
2022/11/29 11:10:40;;;;;;;17.93;12.43;;;7.70;99.90;;;10.99;64.35;97582.53;5004486;28;20046;-57
2022/11/29 11:13:25;;;;;;;21.77;12.17;;;7.80;99.90;;;10.96;64.50;97588.19;4992760;28;20062;-55
2022/11/29 11:16:06;;;;;;;18.17;9.53;;;7.70;99.90;;;10.98;64.25;97578.19;5003293;28;20233;-56
2022/11/29 11:18:36;;;;;;;17.73;11.40;;;7.70;99.90;;;10.68;65.14;97574.31;5003706;28;20047;-60
2022/11/29 11:21:12;;;;;;;18.17;9.83;;;7.60;99.90;;;10.90;64.75;97569.38;5003539;28;20068;-60
2022/11/29 11:24:01;;;;;;;18.00;11.70;;;7.70;99.90;;;11.00;64.43;97578.03;5003319;28;20046;-60
2022/11/29 11:26:43;;;;;;;25.47;13.50;;;7.70;99.90;;;11.10;64.39;97577.88;5003487;28;20054;-60
2022/11/29 11:29:19;;;;;;;22.17;12.97;;;7.80;99.90;;;11.17;63.94;97573.56;5003513;28;20043;-60
2022/11/29 11:31:57;;;;;;;16.33;10.40;;;7.80;99.90;;;11.06;64.01;97577.38;5002310;28;20042;-60
2022/11/29 11:34:34;;;;;;;15.97;11.43;;;7.90;99.90;;;11.15;63.90;97578.22;5003066;28;20307;-60